PWSweather.com
Personal Weather Stations
Station Observations
WISCHPK61
Green Bay Schmitt Park, Green Bay, WI 54311

Green Bay Schmitt ParkGreen Bay, WI 54311

Lat: 44.514277, Lon: -87.935067

Elevation: 735

Station Type: Acu Rite Pro Weather Center model 02032C

http://greenbayweathercam.com

High Low Average
Temperature -3.3°F-19.6°C -23.6°F-30.9°C -15.0°F-26.1°C
Dew Point -3.5°F-19.7°C -26.4°F-32.4°C -18.2°F-27.9°C
Winds 1.2 mph 1.9 kmh Calm Calm Calm WCalm W
Wind Gusts 4.6 mph7.4 kmh -- --
Humidity 99% 53% 87%
Pressure 29.59 in1002.0 mb 29.50 in999.0 mb -
Precipitation 0.00 in0.0 mm - -
Hour Temp Dew Point Humidity Winds Wind Gusts Pressure Precip Precip Rate Daily Precip Total
12:00 AM -17.0°F-27.2°C -26.4°F-32.4°C 61% Calm Calm -- 29.50 in999.0 mb - 0.00 in0.0 mm 0.00 in0.0 mm
01:00 AM -17.9°F-27.7°C -18.1°F-27.8°C 99% Calm Calm -- 29.51 in999.3 mb - 0.00 in0.0 mm 0.00 in0.0 mm
02:00 AM -18.8°F-28.2°C -19.0°F-28.3°C 99% Calm Calm -- 29.52 in999.7 mb - 0.00 in0.0 mm 0.00 in0.0 mm
03:00 AM -19.7°F-28.7°C -19.9°F-28.8°C 99% 1.2 mph WNW1.9 kmh WNW 4.6 mph7.4 kmh 29.52 in999.7 mb - 0.00 in0.0 mm 0.00 in0.0 mm
04:00 AM -20.6°F-29.2°C -20.8°F-29.3°C 99% Calm Calm -- 29.52 in999.7 mb - 0.00 in0.0 mm 0.00 in0.0 mm
05:00 AM -21.5°F-29.7°C -24.4°F-31.3°C 86% Calm Calm -- 29.53 in1000.0 mb - 0.00 in0.0 mm 0.00 in0.0 mm
06:00 AM -22.7°F-30.4°C -22.9°F-30.5°C 99% Calm Calm -- 29.55 in1000.7 mb - 0.00 in0.0 mm 0.00 in0.0 mm
07:00 AM -23.6°F-30.9°C -23.8°F-31.0°C 99% Calm Calm -- 29.56 in1001.0 mb - 0.00 in0.0 mm 0.00 in0.0 mm
08:00 AM -23.1°F-30.6°C -23.3°F-30.7°C 99% Calm Calm -- 29.56 in1001.0 mb - 0.00 in0.0 mm 0.00 in0.0 mm
09:00 AM -20.2°F-29.0°C -24.9°F-31.6°C 78% Calm Calm -- 29.58 in1001.7 mb - 0.00 in0.0 mm 0.00 in0.0 mm
10:00 AM -16.1°F-26.7°C -22.5°F-30.3°C 72% Calm Calm -- 29.59 in1002.0 mb - 0.00 in0.0 mm 0.00 in0.0 mm
11:00 AM -11.9°F-24.4°C -12.1°F-24.5°C 99% Calm Calm -- 29.58 in1001.7 mb - 0.00 in0.0 mm 0.00 in0.0 mm
12:00 PM -7.2°F-21.8°C -14.7°F-25.9°C 69% Calm Calm -- 29.57 in1001.4 mb - 0.00 in0.0 mm 0.00 in0.0 mm
01:00 PM -3.4°F-19.7°C -3.6°F-19.8°C 99% Calm Calm -- 29.57 in1001.4 mb - 0.00 in0.0 mm 0.00 in0.0 mm
02:00 PM -3.3°F-19.6°C -3.5°F-19.7°C 99% Calm Calm -- 29.57 in1001.4 mb - 0.00 in0.0 mm 0.00 in0.0 mm
03:00 PM -6.1°F-21.2°C -17.1°F-27.3°C 58% Calm Calm 1.2 mph1.9 kmh 29.58 in1001.7 mb - 0.00 in0.0 mm 0.00 in0.0 mm
04:00 PM -7.6°F-22.0°C -7.8°F-22.1°C 99% 1.2 mph WSW1.9 kmh WSW 2.3 mph3.7 kmh 29.59 in1002.0 mb - 0.00 in0.0 mm 0.00 in0.0 mm
05:00 PM -9.8°F-23.2°C -22.3°F-30.2°C 53% Calm Calm -- 29.59 in1002.0 mb - 0.00 in0.0 mm 0.00 in0.0 mm
06:00 PM -12.2°F-24.6°C -12.4°F-24.7°C 99% Calm Calm -- 29.57 in1001.4 mb - 0.00 in0.0 mm 0.00 in0.0 mm
07:00 PM -12.3°F-24.6°C -18.5°F-28.1°C 73% Calm Calm -- 29.56 in1001.0 mb - 0.00 in0.0 mm 0.00 in0.0 mm
08:00 PM -13.2°F-25.1°C -13.4°F-25.2°C 99% Calm Calm -- 29.58 in1001.7 mb - 0.00 in0.0 mm 0.00 in0.0 mm
09:00 PM -13.0°F-25.0°C -23.6°F-30.9°C 58% Calm Calm -- 29.58 in1001.7 mb - 0.00 in0.0 mm 0.00 in0.0 mm
10:00 PM -11.6°F-24.2°C -11.8°F-24.3°C 99% Calm Calm -- 29.57 in1001.4 mb - 0.00 in0.0 mm 0.00 in0.0 mm
11:00 PM -11.6°F-24.2°C -11.8°F-24.3°C 99% Calm Calm -- 29.59 in1002.0 mb - 0.00 in0.0 mm 0.00 in0.0 mm